NDF6PC LFSB-EDXW
Flight info
| Callsign | NDF6PC |
|---|---|
| Flight time | 1h 21m |
| Altitude | 28000 |
| Route | ELBEG8M ELBEG Y715 HEUSE N851 TEDGO/N0421F240 N851 LBU Z3 ABUMO N850 ELSOB DCT BADOS DCT OLDIP DCT |
| Aircraft | A320/M-SDE3FGHIRWY/LB1 |
Departure
| Time | 2026-04-20 15:44 |
|---|---|
| Airport | EuroAirport Basel–Mulhouse–Freiburg (LFSB) |
Arrival
| Time | 2026-04-20 17:05 |
|---|---|
| Airport | Westerland Sylt Airport (EDXW) |
| Time | Latitude | Longitude | Altitude | Speed | Heading |
|---|---|---|---|---|---|
| 2026-04-20 15:19 | 47.60107 | 7.52634 | 887 ft | 0 kts | 63° |
| 2026-04-20 15:36 | 47.60107 | 7.52631 | 886 ft | 2 kts | 63° |
| 2026-04-20 15:36 | 47.60093 | 7.52589 | 886 ft | 1 kts | 65° |
| 2026-04-20 15:36 | 47.60087 | 7.52568 | 887 ft | 4 kts | 76° |
| 2026-04-20 15:36 | 47.60087 | 7.52547 | 887 ft | 3 kts | 156° |
| 2026-04-20 15:37 | 47.60113 | 7.52530 | 887 ft | 0 kts | 155° |
| 2026-04-20 15:39 | 47.60112 | 7.52530 | 887 ft | 0 kts | 155° |
| 2026-04-20 15:39 | 47.60080 | 7.52552 | 887 ft | 8 kts | 155° |
| 2026-04-20 15:40 | 47.60027 | 7.52589 | 887 ft | 9 kts | 154° |
| 2026-04-20 15:40 | 47.59975 | 7.52625 | 887 ft | 8 kts | 155° |
| 2026-04-20 15:40 | 47.59929 | 7.52654 | 887 ft | 9 kts | 170° |
| 2026-04-20 15:40 | 47.59873 | 7.52600 | 887 ft | 8 kts | 182° |
| 2026-04-20 15:41 | 47.59823 | 7.52634 | 887 ft | 8 kts | 152° |
| 2026-04-20 15:41 | 47.59766 | 7.52674 | 887 ft | 14 kts | 155° |
| 2026-04-20 15:41 | 47.59669 | 7.52740 | 887 ft | 15 kts | 155° |
| 2026-04-20 15:41 | 47.59580 | 7.52801 | 887 ft | 13 kts | 154° |
| 2026-04-20 15:42 | 47.59500 | 7.52848 | 888 ft | 11 kts | 175° |
| 2026-04-20 15:42 | 47.59461 | 7.52780 | 889 ft | 7 kts | 245° |
| 2026-04-20 15:42 | 47.59443 | 7.52723 | 892 ft | 10 kts | 246° |
| 2026-04-20 15:42 | 47.59447 | 7.52603 | 892 ft | 14 kts | 314° |
| 2026-04-20 15:43 | 47.59543 | 7.52534 | 892 ft | 19 kts | 335° |
| 2026-04-20 15:43 | 47.59865 | 7.52313 | 892 ft | 85 kts | 335° |
| 2026-04-20 15:43 | 47.60584 | 7.51816 | 888 ft | 141 kts | 335° |
| 2026-04-20 15:43 | 47.61585 | 7.51137 | 1171 ft | 163 kts | 337° |
| 2026-04-20 15:44 | 47.62624 | 7.50458 | 1867 ft | 165 kts | 340° |
| 2026-04-20 15:44 | 47.63671 | 7.49761 | 2684 ft | 165 kts | 338° |
| 2026-04-20 15:44 | 47.64776 | 7.48983 | 3093 ft | 187 kts | 338° |
| 2026-04-20 15:44 | 47.66039 | 7.48095 | 3415 ft | 213 kts | 336° |
| 2026-04-20 15:45 | 47.67408 | 7.47108 | 4124 ft | 223 kts | 335° |
| 2026-04-20 15:45 | 47.68807 | 7.46087 | 4945 ft | 227 kts | 338° |
| 2026-04-20 15:45 | 47.70369 | 7.45827 | 5674 ft | 233 kts | 14° |
| 2026-04-20 15:45 | 47.71726 | 7.47129 | 6453 ft | 240 kts | 52° |
| 2026-04-20 15:46 | 47.72280 | 7.49484 | 7166 ft | 249 kts | 87° |
| 2026-04-20 15:46 | 47.72163 | 7.52077 | 7915 ft | 254 kts | 98° |
| 2026-04-20 15:46 | 47.71849 | 7.54697 | 8667 ft | 261 kts | 102° |
| 2026-04-20 15:46 | 47.71496 | 7.57326 | 9435 ft | 266 kts | 102° |
| 2026-04-20 15:47 | 47.71152 | 7.60037 | 10232 ft | 268 kts | 101° |
| 2026-04-20 15:47 | 47.70837 | 7.62790 | 10975 ft | 272 kts | 99° |
| 2026-04-20 15:47 | 47.70547 | 7.65594 | 11700 ft | 276 kts | 98° |
| 2026-04-20 15:47 | 47.70272 | 7.68443 | 12421 ft | 281 kts | 97° |
| 2026-04-20 15:48 | 47.70003 | 7.71342 | 13125 ft | 286 kts | 97° |
| 2026-04-20 15:48 | 47.69895 | 7.74298 | 13825 ft | 289 kts | 83° |
| 2026-04-20 15:48 | 47.70265 | 7.77270 | 14230 ft | 301 kts | 68° |
| 2026-04-20 15:48 | 47.71030 | 7.80277 | 14403 ft | 323 kts | 65° |
| 2026-04-20 15:49 | 47.71864 | 7.83498 | 14548 ft | 346 kts | 66° |
| 2026-04-20 15:49 | 47.72746 | 7.86938 | 14675 ft | 367 kts | 66° |
| 2026-04-20 15:49 | 47.73671 | 7.90582 | 14810 ft | 387 kts | 66° |
| 2026-04-20 15:49 | 47.74626 | 7.94395 | 15184 ft | 398 kts | 66° |
| 2026-04-20 15:50 | 47.75594 | 7.98288 | 15722 ft | 404 kts | 66° |
| 2026-04-20 15:50 | 47.76571 | 8.02237 | 16261 ft | 410 kts | 66° |
| 2026-04-20 15:50 | 47.77551 | 8.06194 | 16822 ft | 416 kts | 66° |
| 2026-04-20 15:50 | 47.78560 | 8.10252 | 17399 ft | 421 kts | 66° |
| 2026-04-20 15:51 | 47.79582 | 8.14352 | 17943 ft | 426 kts | 66° |
| 2026-04-20 15:51 | 47.80618 | 8.18512 | 18465 ft | 431 kts | 65° |
| 2026-04-20 15:51 | 47.81665 | 8.22722 | 18963 ft | 436 kts | 65° |
| 2026-04-20 15:51 | 47.82722 | 8.26973 | 19451 ft | 440 kts | 65° |
| 2026-04-20 15:52 | 47.83788 | 8.31268 | 19963 ft | 444 kts | 65° |
| 2026-04-20 15:52 | 47.84856 | 8.35603 | 20449 ft | 448 kts | 65° |
| 2026-04-20 15:52 | 47.85933 | 8.39993 | 20917 ft | 452 kts | 65° |
| 2026-04-20 15:53 | 47.88104 | 8.48851 | 21843 ft | 460 kts | 64° |
| 2026-04-20 15:53 | 47.89193 | 8.53286 | 22241 ft | 464 kts | 64° |
| 2026-04-20 15:53 | 47.90308 | 8.57828 | 22693 ft | 468 kts | 64° |
| 2026-04-20 15:53 | 47.91433 | 8.62414 | 23132 ft | 472 kts | 64° |
| 2026-04-20 15:54 | 47.92563 | 8.67024 | 23527 ft | 476 kts | 64° |
| 2026-04-20 15:54 | 47.93702 | 8.71693 | 23879 ft | 479 kts | 64° |
| 2026-04-20 15:54 | 47.94839 | 8.76375 | 24255 ft | 481 kts | 64° |
| 2026-04-20 15:54 | 47.95978 | 8.81078 | 24629 ft | 483 kts | 64° |
| 2026-04-20 15:55 | 47.97125 | 8.85815 | 24999 ft | 485 kts | 64° |
| 2026-04-20 15:55 | 47.98268 | 8.90558 | 25366 ft | 487 kts | 64° |
| 2026-04-20 15:55 | 47.99411 | 8.95319 | 25729 ft | 488 kts | 65° |
| 2026-04-20 15:55 | 48.00563 | 9.00094 | 26069 ft | 489 kts | 63° |
| 2026-04-20 15:56 | 48.02032 | 9.04626 | 26393 ft | 481 kts | 52° |
| 2026-04-20 15:56 | 48.03980 | 9.08624 | 26694 ft | 473 kts | 41° |
| 2026-04-20 15:56 | 48.06319 | 9.12016 | 26988 ft | 464 kts | 31° |
| 2026-04-20 15:56 | 48.08953 | 9.14713 | 27304 ft | 455 kts | 21° |
| 2026-04-20 15:57 | 48.11795 | 9.16660 | 27587 ft | 446 kts | 11° |
| 2026-04-20 15:57 | 48.14717 | 9.17862 | 27850 ft | 438 kts | 2° |
| 2026-04-20 15:57 | 48.17720 | 9.18450 | 28037 ft | 434 kts | 358° |
| 2026-04-20 15:57 | 48.20717 | 9.18945 | 28081 ft | 433 kts | 358° |
| 2026-04-20 15:58 | 48.26708 | 9.19941 | 28076 ft | 432 kts | 358° |
| 2026-04-20 15:58 | 48.32685 | 9.20951 | 28075 ft | 432 kts | 358° |
| 2026-04-20 15:59 | 48.38665 | 9.21949 | 28078 ft | 432 kts | 358° |
| 2026-04-20 15:59 | 48.44631 | 9.22949 | 28078 ft | 432 kts | 358° |
| 2026-04-20 16:00 | 48.50618 | 9.23978 | 28078 ft | 433 kts | 358° |
| 2026-04-20 16:00 | 48.56600 | 9.25013 | 28080 ft | 432 kts | 358° |
| 2026-04-20 16:01 | 48.62532 | 9.26050 | 28079 ft | 433 kts | 359° |
| 2026-04-20 16:01 | 48.68507 | 9.27533 | 28074 ft | 436 kts | 2° |
| 2026-04-20 16:02 | 48.74471 | 9.29317 | 28085 ft | 437 kts | 2° |
| 2026-04-20 16:02 | 48.80437 | 9.31050 | 28072 ft | 436 kts | 1° |
| 2026-04-20 16:03 | 48.86394 | 9.32225 | 28067 ft | 423 kts | 350° |
| 2026-04-20 16:03 | 48.92016 | 9.30610 | 28068 ft | 404 kts | 332° |
| 2026-04-20 16:04 | 48.96777 | 9.26451 | 28088 ft | 391 kts | 315° |
| 2026-04-20 16:04 | 49.00812 | 9.20932 | 28069 ft | 389 kts | 313° |
| 2026-04-20 16:05 | 49.04833 | 9.15391 | 28071 ft | 390 kts | 313° |
| 2026-04-20 16:05 | 49.06839 | 9.12624 | 27237 ft | 390 kts | 313° |
| 2026-04-20 16:05 | 49.08835 | 9.09857 | 26102 ft | 395 kts | 314° |
| 2026-04-20 16:06 | 49.10888 | 9.07002 | 25177 ft | 394 kts | 314° |
| 2026-04-20 16:06 | 49.12883 | 9.04227 | 24469 ft | 393 kts | 314° |
| 2026-04-20 16:06 | 49.14902 | 9.01414 | 24206 ft | 394 kts | 314° |
| 2026-04-20 16:06 | 49.17101 | 8.98871 | 24071 ft | 400 kts | 324° |
| 2026-04-20 16:07 | 49.19643 | 8.97034 | 24106 ft | 411 kts | 336° |
| 2026-04-20 16:07 | 49.22450 | 8.96000 | 24103 ft | 421 kts | 347° |
| 2026-04-20 16:07 | 49.25404 | 8.95819 | 24103 ft | 429 kts | 358° |
| 2026-04-20 16:07 | 49.28390 | 8.96223 | 24108 ft | 431 kts | 359° |
| 2026-04-20 16:08 | 49.31388 | 8.96640 | 24109 ft | 431 kts | 359° |
| 2026-04-20 16:08 | 49.34370 | 8.97052 | 24110 ft | 431 kts | 359° |
| 2026-04-20 16:08 | 49.37367 | 8.97466 | 24116 ft | 431 kts | 359° |
| 2026-04-20 16:08 | 49.40356 | 8.97881 | 24134 ft | 431 kts | 0° |
| 2026-04-20 16:09 | 49.43346 | 8.98298 | 24126 ft | 432 kts | 1° |
| 2026-04-20 16:09 | 49.46299 | 8.98715 | 24124 ft | 432 kts | 1° |
| 2026-04-20 16:09 | 49.49297 | 8.99142 | 24111 ft | 432 kts | 1° |
| 2026-04-20 16:09 | 49.52288 | 8.99567 | 24116 ft | 431 kts | 1° |
| 2026-04-20 16:10 | 49.55277 | 8.99988 | 24112 ft | 431 kts | 1° |
| 2026-04-20 16:10 | 49.58269 | 9.00403 | 24117 ft | 431 kts | 1° |
| 2026-04-20 16:10 | 49.61268 | 9.00811 | 24102 ft | 431 kts | 1° |
| 2026-04-20 16:10 | 49.64258 | 9.01217 | 24122 ft | 432 kts | 2° |
| 2026-04-20 16:11 | 49.67254 | 9.01634 | 24114 ft | 432 kts | 2° |
| 2026-04-20 16:11 | 49.70255 | 9.02067 | 24111 ft | 432 kts | 2° |
| 2026-04-20 16:11 | 49.73247 | 9.02508 | 24111 ft | 432 kts | 2° |
| 2026-04-20 16:11 | 49.76207 | 9.02942 | 24110 ft | 432 kts | 2° |
| 2026-04-20 16:12 | 49.79206 | 9.03377 | 24109 ft | 432 kts | 2° |
| 2026-04-20 16:12 | 49.82201 | 9.03807 | 24110 ft | 433 kts | 2° |
| 2026-04-20 16:12 | 49.85200 | 9.04235 | 24113 ft | 433 kts | 4° |
| 2026-04-20 16:12 | 49.88209 | 9.04658 | 24106 ft | 433 kts | 3° |
| 2026-04-20 16:13 | 49.91222 | 9.04657 | 24100 ft | 433 kts | 354° |
| 2026-04-20 16:13 | 49.94195 | 9.03929 | 24096 ft | 432 kts | 345° |
| 2026-04-20 16:13 | 49.97062 | 9.02503 | 24103 ft | 432 kts | 338° |
| 2026-04-20 16:13 | 49.99872 | 9.00826 | 24106 ft | 432 kts | 338° |
| 2026-04-20 16:14 | 50.02644 | 8.99179 | 24107 ft | 433 kts | 338° |
| 2026-04-20 16:14 | 50.05466 | 8.97506 | 24103 ft | 433 kts | 338° |
| 2026-04-20 16:14 | 50.08282 | 8.95837 | 24114 ft | 434 kts | 339° |
| 2026-04-20 16:14 | 50.11134 | 8.94142 | 24132 ft | 441 kts | 339° |
| 2026-04-20 16:15 | 50.14049 | 8.92606 | 24125 ft | 443 kts | 346° |
| 2026-04-20 16:15 | 50.17076 | 8.91720 | 24121 ft | 444 kts | 353° |
| 2026-04-20 16:15 | 50.20143 | 8.91084 | 24129 ft | 444 kts | 353° |
| 2026-04-20 16:15 | 50.23200 | 8.90445 | 24128 ft | 444 kts | 352° |
| 2026-04-20 16:16 | 50.26268 | 8.89797 | 24127 ft | 444 kts | 352° |
| 2026-04-20 16:16 | 50.29324 | 8.89150 | 24119 ft | 444 kts | 353° |
| 2026-04-20 16:16 | 50.32393 | 8.88506 | 24119 ft | 446 kts | 354° |
| 2026-04-20 16:16 | 50.35454 | 8.87868 | 24122 ft | 451 kts | 354° |
| 2026-04-20 16:17 | 50.38570 | 8.87216 | 24130 ft | 453 kts | 354° |
| 2026-04-20 16:17 | 50.41698 | 8.86558 | 24125 ft | 453 kts | 354° |
| 2026-04-20 16:17 | 50.44830 | 8.85901 | 24129 ft | 453 kts | 354° |
| 2026-04-20 16:17 | 50.47952 | 8.85241 | 24128 ft | 453 kts | 354° |
| 2026-04-20 16:18 | 50.51078 | 8.84578 | 24134 ft | 453 kts | 354° |
| 2026-04-20 16:18 | 50.54207 | 8.83917 | 24133 ft | 453 kts | 354° |
| 2026-04-20 16:18 | 50.57334 | 8.83258 | 24138 ft | 454 kts | 354° |
| 2026-04-20 16:18 | 50.60463 | 8.82615 | 24131 ft | 453 kts | 356° |
| 2026-04-20 16:19 | 50.63572 | 8.82460 | 24137 ft | 451 kts | 5° |
| 2026-04-20 16:19 | 50.66674 | 8.83025 | 24136 ft | 448 kts | 13° |
| 2026-04-20 16:19 | 50.69724 | 8.84072 | 24136 ft | 448 kts | 14° |
| 2026-04-20 16:19 | 50.72762 | 8.85129 | 24136 ft | 447 kts | 14° |
| 2026-04-20 16:20 | 50.75805 | 8.86184 | 24126 ft | 447 kts | 14° |
| 2026-04-20 16:20 | 50.78846 | 8.87236 | 24133 ft | 447 kts | 14° |
| 2026-04-20 16:20 | 50.81889 | 8.88289 | 24137 ft | 447 kts | 14° |
| 2026-04-20 16:20 | 50.84929 | 8.89327 | 24137 ft | 447 kts | 14° |
| 2026-04-20 16:21 | 50.87980 | 8.90337 | 24136 ft | 448 kts | 14° |
| 2026-04-20 16:21 | 50.91036 | 8.91328 | 24140 ft | 448 kts | 14° |
| 2026-04-20 16:21 | 50.94098 | 8.92317 | 24136 ft | 448 kts | 14° |
| 2026-04-20 16:21 | 50.97148 | 8.93305 | 24142 ft | 448 kts | 14° |
| 2026-04-20 16:22 | 51.00198 | 8.94302 | 24141 ft | 447 kts | 14° |
| 2026-04-20 16:22 | 51.03247 | 8.95309 | 24150 ft | 447 kts | 14° |
| 2026-04-20 16:22 | 51.06255 | 8.96309 | 24146 ft | 447 kts | 14° |
| 2026-04-20 16:22 | 51.09305 | 8.97284 | 24152 ft | 447 kts | 13° |
| 2026-04-20 16:23 | 51.12359 | 8.98199 | 24153 ft | 447 kts | 13° |
| 2026-04-20 16:23 | 51.15410 | 8.99137 | 24152 ft | 446 kts | 13° |
| 2026-04-20 16:23 | 51.18455 | 9.00125 | 24159 ft | 446 kts | 14° |
| 2026-04-20 16:23 | 51.21502 | 9.01153 | 24150 ft | 445 kts | 15° |
| 2026-04-20 16:24 | 51.24528 | 9.02195 | 24154 ft | 445 kts | 14° |
| 2026-04-20 16:24 | 51.27553 | 9.03240 | 24165 ft | 445 kts | 14° |
| 2026-04-20 16:24 | 51.30582 | 9.04280 | 24167 ft | 444 kts | 14° |
| 2026-04-20 16:24 | 51.33607 | 9.05315 | 24158 ft | 444 kts | 14° |
| 2026-04-20 16:25 | 51.36586 | 9.06331 | 24170 ft | 444 kts | 14° |
| 2026-04-20 16:25 | 51.39600 | 9.07354 | 24169 ft | 443 kts | 14° |
| 2026-04-20 16:25 | 51.42626 | 9.08379 | 24163 ft | 443 kts | 14° |
| 2026-04-20 16:25 | 51.45651 | 9.09407 | 24165 ft | 443 kts | 14° |
| 2026-04-20 16:26 | 51.48665 | 9.10432 | 24160 ft | 443 kts | 14° |
| 2026-04-20 16:26 | 51.51680 | 9.11418 | 24166 ft | 443 kts | 13° |
| 2026-04-20 16:26 | 51.54723 | 9.12226 | 24160 ft | 443 kts | 11° |
| 2026-04-20 16:26 | 51.57781 | 9.12885 | 24172 ft | 443 kts | 9° |
| 2026-04-20 16:27 | 51.59812 | 9.13275 | 24172 ft | 444 kts | 9° |
| 2026-04-20 16:27 | 51.62876 | 9.13841 | 24172 ft | 444 kts | 9° |
| 2026-04-20 16:27 | 51.65942 | 9.14419 | 24170 ft | 443 kts | 9° |
| 2026-04-20 16:27 | 51.69005 | 9.15028 | 24163 ft | 443 kts | 9° |
| 2026-04-20 16:28 | 51.72061 | 9.15672 | 24161 ft | 442 kts | 9° |
| 2026-04-20 16:28 | 51.75112 | 9.16336 | 24163 ft | 442 kts | 10° |
| 2026-04-20 16:28 | 51.78158 | 9.17010 | 24172 ft | 441 kts | 10° |
| 2026-04-20 16:28 | 51.81207 | 9.17691 | 24171 ft | 441 kts | 10° |
| 2026-04-20 16:29 | 51.84245 | 9.18367 | 24171 ft | 441 kts | 10° |
| 2026-04-20 16:29 | 51.87283 | 9.19040 | 24166 ft | 441 kts | 10° |
| 2026-04-20 16:29 | 51.90328 | 9.19722 | 24177 ft | 441 kts | 10° |
| 2026-04-20 16:29 | 51.93326 | 9.20453 | 24176 ft | 440 kts | 11° |
| 2026-04-20 16:30 | 51.96345 | 9.21243 | 24175 ft | 440 kts | 11° |
| 2026-04-20 16:30 | 51.99367 | 9.22063 | 24179 ft | 440 kts | 12° |
| 2026-04-20 16:30 | 52.02385 | 9.22888 | 24177 ft | 439 kts | 12° |
| 2026-04-20 16:30 | 52.05401 | 9.23704 | 24173 ft | 439 kts | 11° |
| 2026-04-20 16:31 | 52.08431 | 9.24418 | 24184 ft | 440 kts | 9° |
| 2026-04-20 16:31 | 52.11479 | 9.25002 | 24186 ft | 440 kts | 8° |
| 2026-04-20 16:31 | 52.14527 | 9.25508 | 24184 ft | 440 kts | 7° |
| 2026-04-20 16:31 | 52.17573 | 9.25986 | 24168 ft | 439 kts | 7° |
| 2026-04-20 16:32 | 52.20607 | 9.26470 | 24188 ft | 438 kts | 7° |
| 2026-04-20 16:32 | 52.23607 | 9.26981 | 24189 ft | 438 kts | 8° |
| 2026-04-20 16:32 | 52.26664 | 9.27627 | 24192 ft | 437 kts | 10° |
| 2026-04-20 16:32 | 52.29630 | 9.28384 | 24192 ft | 436 kts | 11° |
| 2026-04-20 16:33 | 52.32625 | 9.29222 | 24188 ft | 436 kts | 12° |
| 2026-04-20 16:33 | 52.35610 | 9.30080 | 24188 ft | 436 kts | 12° |
| 2026-04-20 16:33 | 52.38609 | 9.30928 | 24187 ft | 436 kts | 11° |
| 2026-04-20 16:33 | 52.41605 | 9.31748 | 24182 ft | 436 kts | 11° |
| 2026-04-20 16:34 | 52.44599 | 9.32539 | 24187 ft | 435 kts | 11° |
| 2026-04-20 16:34 | 52.47577 | 9.33308 | 24188 ft | 434 kts | 11° |
| 2026-04-20 16:34 | 52.50564 | 9.34074 | 24180 ft | 433 kts | 10° |
| 2026-04-20 16:34 | 52.53541 | 9.34837 | 24174 ft | 432 kts | 10° |
| 2026-04-20 16:35 | 52.56510 | 9.35601 | 24169 ft | 432 kts | 11° |
| 2026-04-20 16:35 | 52.59440 | 9.36366 | 24160 ft | 432 kts | 11° |
| 2026-04-20 16:35 | 52.62416 | 9.37150 | 24156 ft | 431 kts | 11° |
| 2026-04-20 16:35 | 52.65380 | 9.37888 | 24159 ft | 431 kts | 9° |
| 2026-04-20 16:36 | 52.68362 | 9.38549 | 24159 ft | 431 kts | 8° |
| 2026-04-20 16:36 | 52.71330 | 9.39154 | 24159 ft | 430 kts | 8° |
| 2026-04-20 16:36 | 52.74307 | 9.39739 | 24153 ft | 430 kts | 8° |
| 2026-04-20 16:36 | 52.77288 | 9.40332 | 24152 ft | 430 kts | 8° |
| 2026-04-20 16:37 | 52.80255 | 9.40941 | 24151 ft | 430 kts | 8° |
| 2026-04-20 16:37 | 52.83226 | 9.41563 | 24149 ft | 430 kts | 8° |
| 2026-04-20 16:37 | 52.86157 | 9.42188 | 24148 ft | 430 kts | 8° |
| 2026-04-20 16:37 | 52.89117 | 9.42823 | 24153 ft | 429 kts | 8° |
| 2026-04-20 16:38 | 52.92079 | 9.43462 | 24159 ft | 429 kts | 9° |
| 2026-04-20 16:38 | 52.95039 | 9.44104 | 24166 ft | 428 kts | 9° |
| 2026-04-20 16:38 | 52.97990 | 9.44743 | 24172 ft | 427 kts | 9° |
| 2026-04-20 16:38 | 53.00944 | 9.45375 | 24173 ft | 427 kts | 8° |
| 2026-04-20 16:39 | 53.03892 | 9.45998 | 24176 ft | 427 kts | 9° |
| 2026-04-20 16:39 | 53.06848 | 9.46619 | 24174 ft | 427 kts | 8° |
| 2026-04-20 16:39 | 53.09796 | 9.47244 | 24177 ft | 426 kts | 8° |
| 2026-04-20 16:39 | 53.12739 | 9.47874 | 24175 ft | 426 kts | 8° |
| 2026-04-20 16:40 | 53.15647 | 9.48499 | 24171 ft | 426 kts | 8° |
| 2026-04-20 16:40 | 53.18592 | 9.49131 | 24180 ft | 426 kts | 8° |
| 2026-04-20 16:40 | 53.21530 | 9.49756 | 24177 ft | 426 kts | 8° |
| 2026-04-20 16:40 | 53.24465 | 9.50385 | 24175 ft | 426 kts | 8° |
| 2026-04-20 16:41 | 53.27407 | 9.51023 | 24175 ft | 426 kts | 8° |
| 2026-04-20 16:41 | 53.30341 | 9.51664 | 24172 ft | 426 kts | 8° |
| 2026-04-20 16:41 | 53.33284 | 9.52304 | 24172 ft | 426 kts | 8° |
| 2026-04-20 16:41 | 53.36215 | 9.52936 | 24174 ft | 426 kts | 8° |
| 2026-04-20 16:42 | 53.39153 | 9.53565 | 24189 ft | 425 kts | 8° |
| 2026-04-20 16:42 | 53.42087 | 9.54192 | 24195 ft | 425 kts | 8° |
| 2026-04-20 16:42 | 53.45020 | 9.54821 | 24213 ft | 424 kts | 8° |
| 2026-04-20 16:42 | 53.47947 | 9.55456 | 24219 ft | 424 kts | 8° |
| 2026-04-20 16:43 | 53.50871 | 9.56095 | 24218 ft | 424 kts | 8° |
| 2026-04-20 16:43 | 53.53802 | 9.56700 | 24217 ft | 424 kts | 7° |
| 2026-04-20 16:43 | 53.56734 | 9.57151 | 24218 ft | 424 kts | 6° |
| 2026-04-20 16:43 | 53.59682 | 9.57486 | 24217 ft | 424 kts | 5° |
| 2026-04-20 16:44 | 53.62600 | 9.57692 | 24206 ft | 425 kts | 1° |
| 2026-04-20 16:44 | 53.65548 | 9.57206 | 24202 ft | 428 kts | 352° |
| 2026-04-20 16:44 | 53.68445 | 9.55960 | 24204 ft | 432 kts | 343° |
| 2026-04-20 16:44 | 53.71274 | 9.54241 | 24203 ft | 432 kts | 342° |
| 2026-04-20 16:45 | 53.74107 | 9.52522 | 24206 ft | 432 kts | 343° |
| 2026-04-20 16:45 | 53.76937 | 9.50810 | 24214 ft | 432 kts | 343° |
| 2026-04-20 16:45 | 53.79783 | 9.49084 | 24215 ft | 432 kts | 343° |
| 2026-04-20 16:45 | 53.82615 | 9.47359 | 24215 ft | 433 kts | 342° |
| 2026-04-20 16:46 | 53.85445 | 9.45626 | 24214 ft | 433 kts | 342° |
| 2026-04-20 16:46 | 53.88279 | 9.43880 | 24211 ft | 432 kts | 343° |
| 2026-04-20 16:46 | 53.91102 | 9.42137 | 24213 ft | 433 kts | 343° |
| 2026-04-20 16:46 | 53.93938 | 9.40386 | 24214 ft | 433 kts | 342° |
| 2026-04-20 16:47 | 53.96775 | 9.38632 | 24219 ft | 434 kts | 343° |
| 2026-04-20 16:47 | 53.99578 | 9.36896 | 24228 ft | 434 kts | 343° |
| 2026-04-20 16:47 | 54.02424 | 9.35134 | 24230 ft | 434 kts | 343° |
| 2026-04-20 16:47 | 54.05260 | 9.33377 | 24231 ft | 435 kts | 342° |
| 2026-04-20 16:48 | 54.08106 | 9.31612 | 24229 ft | 435 kts | 342° |
| 2026-04-20 16:48 | 54.10955 | 9.29846 | 24239 ft | 435 kts | 343° |
| 2026-04-20 16:48 | 54.13797 | 9.28079 | 24242 ft | 435 kts | 343° |
| 2026-04-20 16:48 | 54.16650 | 9.26305 | 24233 ft | 435 kts | 343° |
| 2026-04-20 16:49 | 54.19525 | 9.24513 | 24053 ft | 442 kts | 343° |
| 2026-04-20 16:49 | 54.22374 | 9.22732 | 23747 ft | 440 kts | 343° |
| 2026-04-20 16:49 | 54.25237 | 9.20935 | 22883 ft | 436 kts | 343° |
| 2026-04-20 16:49 | 54.28063 | 9.19155 | 22159 ft | 429 kts | 343° |
| 2026-04-20 16:50 | 54.30845 | 9.17399 | 21452 ft | 424 kts | 343° |
| 2026-04-20 16:50 | 54.33601 | 9.15652 | 20760 ft | 419 kts | 341° |
| 2026-04-20 16:50 | 54.36218 | 9.13473 | 20078 ft | 419 kts | 332° |
| 2026-04-20 16:50 | 54.38595 | 9.10595 | 19418 ft | 419 kts | 323° |
| 2026-04-20 16:51 | 54.40704 | 9.07134 | 18773 ft | 418 kts | 318° |
| 2026-04-20 16:51 | 54.42736 | 9.03607 | 18109 ft | 414 kts | 317° |
| 2026-04-20 16:51 | 54.44750 | 9.00110 | 17524 ft | 409 kts | 318° |
| 2026-04-20 16:51 | 54.46739 | 8.96650 | 16963 ft | 404 kts | 317° |
| 2026-04-20 16:52 | 54.48703 | 8.93228 | 16408 ft | 400 kts | 317° |
| 2026-04-20 16:52 | 54.50644 | 8.89838 | 15864 ft | 396 kts | 318° |
| 2026-04-20 16:52 | 54.52562 | 8.86484 | 15324 ft | 392 kts | 317° |
| 2026-04-20 16:52 | 54.54472 | 8.83141 | 14782 ft | 389 kts | 317° |
| 2026-04-20 16:53 | 54.56359 | 8.79832 | 14222 ft | 386 kts | 317° |
| 2026-04-20 16:53 | 54.58230 | 8.76548 | 13598 ft | 384 kts | 318° |
| 2026-04-20 16:53 | 54.60072 | 8.73313 | 12998 ft | 380 kts | 317° |
| 2026-04-20 16:53 | 54.61891 | 8.70024 | 12389 ft | 378 kts | 314° |
| 2026-04-20 16:54 | 54.63535 | 8.66470 | 11762 ft | 377 kts | 311° |
| 2026-04-20 16:54 | 54.65154 | 8.62931 | 11292 ft | 371 kts | 311° |
| 2026-04-20 16:54 | 54.66718 | 8.59507 | 11164 ft | 354 kts | 311° |
| 2026-04-20 16:54 | 54.68207 | 8.56228 | 11035 ft | 340 kts | 311° |
| 2026-04-20 16:55 | 54.69621 | 8.53109 | 10910 ft | 327 kts | 311° |
| 2026-04-20 16:55 | 54.71000 | 8.50065 | 10776 ft | 316 kts | 311° |
| 2026-04-20 16:55 | 54.72342 | 8.47106 | 10514 ft | 310 kts | 311° |
| 2026-04-20 16:55 | 54.73666 | 8.44190 | 10263 ft | 306 kts | 311° |
| 2026-04-20 16:56 | 54.74975 | 8.41308 | 10127 ft | 305 kts | 311° |
| 2026-04-20 16:56 | 54.76287 | 8.38417 | 9987 ft | 305 kts | 311° |
| 2026-04-20 16:56 | 54.77596 | 8.35526 | 9790 ft | 305 kts | 311° |
| 2026-04-20 16:56 | 54.78909 | 8.32626 | 9274 ft | 307 kts | 311° |
| 2026-04-20 16:57 | 54.80357 | 8.29941 | 8818 ft | 302 kts | 324° |
| 2026-04-20 16:57 | 54.82044 | 8.27813 | 8434 ft | 297 kts | 329° |
| 2026-04-20 16:57 | 54.83724 | 8.25748 | 7941 ft | 295 kts | 329° |
| 2026-04-20 16:57 | 54.85389 | 8.23684 | 7387 ft | 294 kts | 329° |
| 2026-04-20 16:58 | 54.87050 | 8.21617 | 6846 ft | 293 kts | 329° |
| 2026-04-20 16:58 | 54.88704 | 8.19556 | 6296 ft | 291 kts | 329° |
| 2026-04-20 16:58 | 54.90347 | 8.17506 | 5721 ft | 289 kts | 328° |
| 2026-04-20 16:58 | 54.91936 | 8.15515 | 5294 ft | 281 kts | 328° |
| 2026-04-20 16:59 | 54.93536 | 8.13512 | 4820 ft | 275 kts | 328° |
| 2026-04-20 16:59 | 54.95020 | 8.11647 | 4675 ft | 258 kts | 328° |
| 2026-04-20 16:59 | 54.96452 | 8.09967 | 4545 ft | 236 kts | 341° |
| 2026-04-20 16:59 | 54.97953 | 8.09469 | 4465 ft | 211 kts | 11° |
| 2026-04-20 17:00 | 55.00320 | 8.11821 | 3812 ft | 200 kts | 53° |
| 2026-04-20 17:00 | 55.01072 | 8.13906 | 3190 ft | 206 kts | 69° |
| 2026-04-20 17:00 | 55.01427 | 8.16244 | 2718 ft | 197 kts | 83° |
| 2026-04-20 17:01 | 55.01381 | 8.18559 | 2465 ft | 186 kts | 98° |
| 2026-04-20 17:01 | 55.01008 | 8.20618 | 2284 ft | 172 kts | 111° |
| 2026-04-20 17:01 | 55.00402 | 8.22319 | 2063 ft | 160 kts | 123° |
| 2026-04-20 17:01 | 54.99657 | 8.23651 | 1877 ft | 148 kts | 133° |
| 2026-04-20 17:02 | 54.98855 | 8.24687 | 1713 ft | 137 kts | 136° |
| 2026-04-20 17:02 | 54.98094 | 8.25622 | 1542 ft | 132 kts | 136° |
| 2026-04-20 17:02 | 54.97356 | 8.26543 | 1357 ft | 128 kts | 135° |
| 2026-04-20 17:02 | 54.96631 | 8.27448 | 1185 ft | 130 kts | 136° |
| 2026-04-20 17:03 | 54.95888 | 8.28372 | 1013 ft | 132 kts | 136° |
| 2026-04-20 17:03 | 54.95156 | 8.29287 | 834 ft | 131 kts | 136° |
| 2026-04-20 17:03 | 54.94416 | 8.30213 | 673 ft | 130 kts | 137° |
| 2026-04-20 17:03 | 54.93676 | 8.31128 | 492 ft | 131 kts | 138° |
| 2026-04-20 17:04 | 54.92927 | 8.32030 | 326 ft | 130 kts | 138° |
| 2026-04-20 17:04 | 54.92196 | 8.32922 | 163 ft | 126 kts | 135° |
| 2026-04-20 17:04 | 54.91497 | 8.33804 | 52 ft | 116 kts | 136° |
| 2026-04-20 17:04 | 54.90946 | 8.34525 | 44 ft | 77 kts | 145° |
| 2026-04-20 17:05 | 54.90612 | 8.34927 | 41 ft | 42 kts | 144° |
| 2026-04-20 17:05 | 54.90436 | 8.35143 | 43 ft | 24 kts | 145° |
| 2026-04-20 17:05 | 54.90333 | 8.35045 | 40 ft | 20 kts | 249° |
| 2026-04-20 17:05 | 54.90304 | 8.34808 | 37 ft | 20 kts | 261° |
| 2026-04-20 17:06 | 54.90278 | 8.34563 | 33 ft | 21 kts | 258° |
| 2026-04-20 17:06 | 54.90252 | 8.34312 | 30 ft | 21 kts | 260° |
| 2026-04-20 17:06 | 54.90233 | 8.34063 | 29 ft | 20 kts | 277° |
| 2026-04-20 17:06 | 54.90252 | 8.33836 | 29 ft | 19 kts | 277° |
| 2026-04-20 17:07 | 54.90287 | 8.33600 | 29 ft | 20 kts | 295° |
| 2026-04-20 17:07 | 54.90361 | 8.33418 | 30 ft | 17 kts | 314° |
| 2026-04-20 17:07 | 54.90453 | 8.33306 | 31 ft | 15 kts | 332° |
| 2026-04-20 17:07 | 54.90544 | 8.33253 | 32 ft | 12 kts | 349° |
| 2026-04-20 17:08 | 54.90622 | 8.33241 | 31 ft | 10 kts | 355° |
| 2026-04-20 17:08 | 54.90700 | 8.33231 | 34 ft | 14 kts | 356° |
| 2026-04-20 17:08 | 54.90812 | 8.33211 | 38 ft | 17 kts | 351° |
| 2026-04-20 17:08 | 54.90923 | 8.33136 | 39 ft | 16 kts | 329° |
| 2026-04-20 17:09 | 54.91021 | 8.33146 | 38 ft | 17 kts | 31° |
| 2026-04-20 17:09 | 54.91147 | 8.33180 | 37 ft | 20 kts | 359° |
| 2026-04-20 17:09 | 54.91272 | 8.33187 | 35 ft | 15 kts | 9° |
| 2026-04-20 17:09 | 54.91312 | 8.33142 | 33 ft | 0 kts | 264° |
| 2026-04-20 17:10 | 54.91312 | 8.33133 | 33 ft | 3 kts | 271° |
| 2026-04-20 17:10 | 54.91312 | 8.33108 | 33 ft | 0 kts | 270° |